Portada
METAR-TAF:

METAR-TAF

Aeropuertos :

Chugiak, Alaska, Estados Unidos

latitud: 61-25N, longitud: 149-31W, altitud: 29 m

Observación

El informe se hizo hace 40 minutos, a las 07:19 UTC
Viento 7 kt del sur-suroeste
Temperatura -4°C
Humedad 86%
Presión 995 hPa
Visibilidad: 11.3 km
Cielo nuboso a una altura de 2600 ft
Cielo cubierto a una altura de 3200 ft
poca nieve

METAR: PABV 280719Z AUTO 20007KT 7SM -SN BKN026 OVC032 M04/M06 A2938 RMK AO2 P0000 FZRANO

Hora: 22:59 (07:59 UTC)


TAF: falta

Observaciones y pronósticos meteorológicos de más de 4000 aeropuertos (mensajes METAR y TAF).

Los puntos amarillos y rojos representan las estaciones disponibles.

Ponga el ratón en el punto deseado para ver el nombre de la estación.

Haga clic para ver las observaciones y los pronósticos meteorológicos.

Para cambiar el mapa : haga clic en los botones verdes con una cruz de color negro para hacer un zoom, en el botón verde con un guión para alejar o en las flechas verdes para mapas adyacentes.


METAR-TAF: